Avao, Samoa

6:29 AM WST on September 17, 2014 (GMT +1300)
Asaga Village, Savaii | Change Station
CLOSE
Current Station
Personal Weather Station
Location: Asaga, SAVAII
Elevation: 10 ft
Nearby Weather Stations

Elev 10 ft 13.60 °S, 172.21 °W | Updated 8 minutes ago

Partly Cloudy
Partly Cloudy
77.4 °F
Feels Like 79 °F
N
0.0
Wind Variable Wind from North
Gusts 0.0 mph

Today
High -- | Low -- °F
--% Chance of Precip.
Yesterday
High -- | Low -- °F
Precip. -- in
6:22 AM 6:25 PM
Last Quarter, 44% visible
Pressure 29.89 in
Visibility 6.2 miles
Clouds Few 3000 ft
Heat Index 79 °F
Dew Point 70 °F
Humidity 78%
Rainfall 0.00 in
Snow Depth Not available.
UV 0.0 out of 12
Pollen Not available.
Air Quality Not available.
Flu Activity Not available.
METAR NSFA 161700Z 00000KT 9999 FEW030 22/21 Q1012

More Conditions Fewer Conditions

Pressure 29.89 in
Visibility 6.2 miles
Clouds Few 3000 ft
Heat Index 79 °F
Dew Point 70 °F
Humidity 78%
Rainfall 0.00 in
Snow Depth Not available.
UV 0.0 out of 12
Pollen Not available.
Air Quality Not available.
Flu Activity Not available.
METAR NSFA 161700Z 00000KT 9999 FEW030 22/21 Q1012

More Conditions Fewer Conditions

10-Day Weather Forecast

Almanac

Astronomy

Sep. 17, 2014 Rise Set
Actual Time 6:22 AM WST 6:25 PM WST
Civil Twilight 6:01 AM WST 6:46 PM WST
Nautical Twilight 5:36 AM WST 7:11 PM WST
Astronomical Twilight 5:11 AM WST 7:35 PM WST
Moon 12:59 AM WST (9/17) 12:45 PM WST (9/17)
Length of Visible Light 12h 45m
Length of Day
12h 02m
Tomorrow will be 0m 44s longer.
Last Quarter, 44% of the Moon is Illuminated
Sep 16
Last Quarter
Sep 24
New
Oct 1
First Quarter
Oct 8
Full
Oct 15
Last Quarter

Yesterday's Extremes

Country Highs Country Lows

Community

WunderPhotos

Upload Photos

1,753,838 photos uploaded!

Nearby

Snow Depth

Not available.

Earthquake Activity

City Distance Mag. Time & Date
No recent earthquake activity has been reported nearby.
Minimum magnitude displayed is 2.5.

Coastal Water Temperatures

Place Temperature
No Stations Reporting

Nearby Weather Stations